Terminal Aerodrome Forecast
Issued by NWS

Home | Current Version | Previous Version | Text Only | Print | Product List | Glossary On
Versions: 1 2 3 4 5 6 7 8 9 10 11 12 13 14 15 16 17 18 19 20 21 22 23 24
000
FTUS43 KDLH 280500
TAFHIB
TAF
KHIB 280535Z 2806/2906 VRB04KT P6SM SCT100
     FM281300 13007KT P6SM BKN100
     FM281800 16009G16KT P6SM VCTS SCT040CB
     FM282000 18012G30KT P6SM VCTS SCT060CB
     FM290200 18010KT P6SM VCTS SCT060CB WS020/20030KT=

USA.gov is the U.S. government's official web portal to all federal, state and local government web resources and services.